OITTOOSA

Guest
Details From OITT - Tabriz Intl
To OOSA - Salalah
Flight Number -
Tags Generated
Created
Modified
Stats Distance 1,334 nm / 2,470 km
Max Altitude 0 ft / 0 m
Waypoints 4
Social Downloads 0
Likes 0
Share VATSIM

Download

Looking for another format? Having issues loading an existing format? Contact us
Advertisement - Login to hide

Notes

Generated

Route

OITT OMD SLL OOSA

ID Type Via Altitude Latitude Longitude Leg Dist Tot Dist Heading (true) Name
O OITT APT - 0 ft / 0 m 38.14227˚ 46.21870˚ - 0 nm - -
OMD VOR - 0 ft / 0 m 30.85194˚ 49.50528˚ 466 nm 466 nm 159° / 161° OMIDIYEH VORTAC
SLL VOR - 0 ft / 0 m 17.04436˚ 54.09417˚ 866 nm 1333 nm 162° / 164° SALALAH VOR-DME
O OOSA APT - 0 ft / 0 m 17.04026˚ 54.10133˚ 0 nm 1333 nm 121° / 121° SALALAH

Altitude Profile

Advertisement - Login to hide

Weather


0- 5 10 15 20 25 30 35+ Temperature / ° C

Clouds and Precipitation
Forecast for 2017-12-19 00:00 UTC. Updated an hour ago

Ground ~20,000 ft ~40,000 ft Winds

OITT

Details ICAO OITT (TBZ)
Name TABRIZ INTL
Region Iran
Timezone Asia/Tehran (UTC+3.5)
Stats Elevation 4,459 ft / 1,359 m (AMSL)
Location 38.132990° 46.234937°
Runways 2
Magnetic Variation 5.633° E

METAR

OITT 182030Z 04004KT 3000 BR NSC M00/M03 Q1025 A3028

Decode

TAF

TAF OITT 181730Z 1818/1924 04003MPS 3000 BR NSC TEMPO 1902/1906 1200 BR BECMG 1906/1908 4000 HZ BECMG 1912/1914 FEW035 BKN090

Decode

Departure Runways

ID Width Length Bearing (true) Bearing (mag) Surface Threshold Offset Overrun Length
12L 148 ft / 45 m 11,818 ft / 3,602 m 129.05° 123.42° Asphalt 0 ft / 0 m 355 ft / 108 m
12R 98 ft / 30 m 11,531 ft / 3,515 m 128.97° 123.34° Asphalt 0 ft / 0 m 340 ft / 104 m
30L 98 ft / 30 m 11,531 ft / 3,515 m 308.99° 303.36° Asphalt 0 ft / 0 m 1,130 ft / 344 m
30R 148 ft / 45 m 11,818 ft / 3,602 m 309.07° 303.44° Asphalt 0 ft / 0 m 340 ft / 104 m

OOSA

Details ICAO OOSA (SLL)
Name SALALAH
Region Oman
Timezone Asia/Muscat (UTC+4.0)
Stats Elevation 73 ft / 22 m (AMSL)
Location 17.036616° 54.096616°
Runways 2
Magnetic Variation 0.882° E

METAR

OOSA 181950Z 02010KT CAVOK 22/00 Q1021 NOSIG

Decode

TAF

TAF OOSA 181740Z 1818/2000 35014KT 8000 NSC BECMG 1822/1823 36026KT BECMG 1912/1913 01015KT

Decode

Destination Runways

ID Width Length Bearing (true) Bearing (mag) Surface Threshold Offset Overrun Length
07 148 ft / 45 m 10,960 ft / 3,341 m 70.68° 69.80° Asphalt 0 ft / 0 m 197 ft / 60 m
17 59 ft / 18 m 4,217 ft / 1,285 m 174.11° 173.23° Dirt 0 ft / 0 m 5,016 ft / 1,529 m
25 148 ft / 45 m 10,960 ft / 3,341 m 250.69° 249.81° Asphalt 0 ft / 0 m 197 ft / 60 m
35 59 ft / 18 m 4,217 ft / 1,285 m 354.11° 353.23° Dirt 0 ft / 0 m 4,392 ft / 1,339 m

Approach Navaids

Runway Type Ident Frequency Range Bearing (true) Bearing (mag) Slope Elevation
25 Localiser ISL 110.10 MHz 18 nm / 33 km 250.67° 249.79° - 73 ft / 22 m (AMSL)
25 Glidescope ISL 110.10 MHz 10 nm / 19 km 250.68° 249.80° 3.08° 73 ft / 22 m (AMSL)
25 DME ISL 110.10 MHz 18 nm / 33 km - - - 73 ft / 22 m (AMSL)